• Join FlightAware (Why Join?)
  • Login
  • US Flag 
09:02AM EDT


 

Airport Tracker/Info


-or-


 

Live Flight TrackerFlight Track Log ✈ FLG3432 ✈ 16-May-2013 ✈ KALB - KMSP

Flight Track Log - Related Links

Times and Time Zones

All times are in EDT time to prevent confusion due to time zone crossing. See the FLG3432 flight status page for this flight to view local times or setup timezone preferences in your user account.

Time Position Orientation Groundspeed Altitude Reporting Facility
EDT Latitude Longitude Course Direction KTS MPH feet Rate Location/Type
06:38AM 42.8047 -73.8211 304° West 169 194 2,800  Level Boston Center
06:40AM 42.8073 -74.1641 282° West  Level FlightAware Approximate
06:40AM 42.8728 -73.8708 332° Northwest 194 223 5,700  Level Boston Center
06:41AM 42.8266 -74.2893 282° West  Level FlightAware Approximate
06:41AM 42.9286 -73.9117 332° Northwest 228 262 8,000  Level Boston Center
06:42AM 42.8469 -74.4143 283° West  Level FlightAware Approximate
06:42AM 42.9967 -73.9589 333° Northwest 239 275 11,000  Level Boston Center
06:43AM 42.8692 -74.5383 304° West  Level FlightAware Approximate
06:43AM 43.0628 -74.0031 334° Northwest 273 314 12,300  Level Boston Center
06:44AM 43.1261 -74.0900 315° West 294 338 14,600 2,220 Climbing Boston Center
06:45AM 43.1519 -74.1903 289° West 294 338 16,800 2,100 Climbing Boston Center
06:46AM 43.1833 -74.3108 290° West 301 346 18,800 1,680 Climbing Boston Center
06:47AM 43.2106 -74.4172 289° West 315 362 20,200 1,740 Climbing Boston Center
06:48AM 43.2400 -74.5319 289° West 320 368 22,300 1,800 Climbing Boston Center
06:49AM 43.2711 -74.6500 290° West 331 381 23,800 1,500 Climbing Boston Center
06:50AM 43.3019 -74.7711 289° West 331 381 25,300 1,320 Climbing Boston Center
06:51AM 43.3328 -74.8922 289° West 331 381 26,500 1,200 Climbing Boston Center
06:52AM 43.3653 -75.0192 289° West 338 389 27,700 1,140 Climbing Boston Center
06:53AM 43.3978 -75.1461 289° West 350 403 28,800 1,440 Climbing Boston Center
06:54AM 43.4342 -75.2881 289° West 356 410 30,600 1,560 Climbing Boston Center
06:55AM 43.4642 -75.4125 288° West 356 410 32,000 660 Climbing Boston Center
06:56AM 43.4964 -75.5400 289° West 351 404 32,000  Level Boston Center
06:57AM 43.5281 -75.6675 289° West 351 404 32,000  Level Boston Center
06:58AM 43.5578 -75.7953 288° West 351 404 32,000  Level Boston Center
06:59AM 43.5894 -75.9233 289° West 351 404 32,000  Level Boston Center
07:00AM 43.6211 -76.0483 289° West 351 404 32,000 360 Level Boston Center
07:01AM 43.6503 -76.1764 288° West 351 404 32,800 900 Climbing Boston Center
07:02AM 43.6814 -76.3047 289° West 351 404 33,900 960 Climbing Boston Center
07:03AM 43.7106 -76.4272 288° West 345 397 34,800 840 Climbing Boston Center
07:04AM 43.7375 -76.5528 287° West 345 397 35,600 600 Climbing Boston Center
07:05AM 43.7664 -76.6756 288° West 345 397 36,000 180 Climbing Boston Center
07:06AM 43.7833 -76.7667 284° West 340 391 36,000  Level Toronto Center
07:07AM 43.8167 -76.8833 292° West 340 391 36,000  Level Toronto Center
07:08AM 43.8333 -77.0000 281° West 340 391 36,000  Level Toronto Center
07:09AM 43.8667 -77.1333 289° West 340 391 36,000  Level Toronto Center
07:10AM 43.8833 -77.2500 281° West 340 391 36,000  Level Toronto Center
07:11AM 43.9333 -77.3833 298° West 340 391 36,000  Level Toronto Center
07:12AM 43.9500 -77.5000 281° West 340 391 36,000  Level Toronto Center
07:13AM 43.9833 -77.6333 289° West 340 391 36,000  Level Toronto Center
07:14AM 44.0000 -77.7500 281° West 340 391 36,000  Level Toronto Center
07:15AM 44.0333 -77.8667 292° West 340 391 36,000  Level Toronto Center
07:16AM 44.0500 -78.0167 279° West 340 391 36,000  Level Toronto Center
07:17AM 44.0833 -78.1167 295° West 340 391 36,000  Level Toronto Center
07:18AM 44.1000 -78.2667 279° West 340 391 36,000  Level Toronto Center
07:19AM 44.1333 -78.4000 289° West 340 391 36,000  Level Toronto Center
07:20AM 44.1833 -78.5167 301° West 340 391 36,000  Level Toronto Center
07:21AM 44.2000 -78.6500 280° West 340 391 36,000  Level Toronto Center
07:22AM 44.2333 -78.7667 292° West 340 391 36,000  Level Toronto Center
07:23AM 44.2500 -78.9167 279° West 340 391 36,000  Level Toronto Center
07:24AM 44.2833 -79.0333 292° West 340 391 36,000  Level Toronto Center
07:25AM 44.3000 -79.1667 280° West 340 391 36,000  Level Toronto Center
07:26AM 44.3167 -79.2833 281° West 340 391 36,000  Level Toronto Center
07:27AM 44.3333 -79.4167 280° West 340 391 36,000  Level Toronto Center
07:28AM 44.3333 -79.5333 270° West 340 391 36,000  Level Toronto Center
07:29AM 44.3500 -79.6833 279° West 340 391 36,000  Level Toronto Center
07:30AM 44.3500 -79.8000 270° West 340 391 36,000  Level Toronto Center
07:31AM 44.3500 -79.9333 270° West 340 391 36,000  Level Toronto Center
07:32AM 44.3667 -80.0833 279° West 340 391 36,000  Level Toronto Center
07:33AM 44.3667 -80.2000 270° West 340 391 36,000  Level Toronto Center
07:34AM 44.3833 -80.3333 280° West 340 391 36,000  Level Toronto Center
07:35AM 44.3833 -80.4667 270° West 350 403 36,000  Level Toronto Center
07:36AM 44.4000 -80.6167 279° West 350 403 36,000  Level Toronto Center
07:37AM 44.4000 -80.7333 270° West 350 403 36,000  Level Toronto Center
07:38AM 44.4000 -80.8667 270° West 350 403 36,000  Level Toronto Center
07:39AM 44.4000 -81.0167 270° West 350 403 36,000  Level Toronto Center
07:40AM 44.4167 -81.1500 280° West 350 403 36,000  Level Toronto Center
07:41AM 44.4167 -81.2833 270° West 350 403 36,000  Level Toronto Center
07:42AM 44.4333 -81.4000 281° West 350 403 36,000  Level Toronto Center
07:43AM 44.4333 -81.5500 270° West 350 403 36,000  Level Toronto Center
07:44AM 44.4500 -81.6833 280° West 350 403 36,000  Level Toronto Center
07:45AM 44.4500 -81.8333 270° West 350 403 36,000  Level Toronto Center
07:46AM 44.4500 -81.9667 270° West 350 403 36,000  Level Toronto Center
07:47AM 44.4500 -82.1167 270° West 350 403 36,000  Level Toronto Center
07:48AM 44.4667 -82.2333 281° West 340 391 36,000  Level Toronto Center
07:49AM 44.4667 -82.3667 270° West 350 403 36,000  Level Toronto Center
07:50AM 44.4833 -82.5000 280° West 350 403 36,000  Level Toronto Center
07:51AM 44.4833 -82.6500 270° West 350 403 36,000  Level Toronto Center
07:51AM 44.4953 -82.7211 283° West 349 402 36,000  Level Minneapolis Center
07:52AM 44.5058 -82.8578 276° West 352 405 36,000  Level Minneapolis Center
07:53AM 44.5194 -83.0231 277° West 355 409 36,000  Level Minneapolis Center
07:54AM 44.5306 -83.1619 276° West 357 411 36,000  Level Minneapolis Center
07:55AM 44.5417 -83.3017 276° West 361 415 36,000  Level Minneapolis Center
07:56AM 44.5547 -83.4431 277° West 364 419 36,000  Level Minneapolis Center
07:57AM 44.5642 -83.5853 275° West 367 422 36,000  Level Minneapolis Center
07:58AM 44.5758 -83.7281 277° West 368 423 36,000 120 Level Minneapolis Center
07:59AM 44.5864 -83.8733 276° West 373 429 36,300 780 Climbing Minneapolis Center
08:00AM 44.5986 -84.0136 277° West 367 422 37,600 780 Climbing Minneapolis Center
08:01AM 44.6061 -84.1500 274° West 356 410 38,000 180 Climbing Minneapolis Center
08:03AM 44.6192 -84.3164 276° West 358 412 38,000  Level Minneapolis Center
08:04AM 44.6292 -84.4556 276° West 359 413 38,000  Level Minneapolis Center
08:05AM 44.6392 -84.5958 276° West 361 415 38,000  Level Minneapolis Center
08:06AM 44.6483 -84.7389 275° West 366 421 38,000  Level Minneapolis Center
08:07AM 44.6578 -84.8814 275° West 369 425 38,000  Level Minneapolis Center
08:08AM 44.6672 -85.0250 275° West 371 427 38,000  Level Minneapolis Center
08:09AM 44.6764 -85.1717 275° West 374 430 38,000  Level Minneapolis Center
08:10AM 44.6861 -85.3169 275° West 375 432 38,000  Level Minneapolis Center
08:11AM 44.6944 -85.4642 275° West 377 434 38,000  Level Minneapolis Center
08:12AM 44.7050 -85.6397 275° West 377 434 38,000  Level Minneapolis Center
08:13AM 44.7131 -85.7858 274° West 378 435 38,000  Level Minneapolis Center
08:14AM 44.7228 -85.9342 275° West 380 437 38,000  Level Minneapolis Center
08:15AM 44.7308 -86.0814 274° West 381 438 38,000  Level Minneapolis Center
08:16AM 44.7386 -86.2303 274° West 382 440 38,000  Level Minneapolis Center
08:17AM 44.7467 -86.3772 274° West 380 437 38,000  Level Minneapolis Center
08:18AM 44.7539 -86.5225 274° West 377 434 38,000  Level Minneapolis Center
08:19AM 44.7614 -86.6692 274° West 377 434 38,000  Level Minneapolis Center
08:20AM 44.7672 -86.8014 274° West 377 434 38,000  Level Minneapolis Center
08:21AM 44.7761 -86.9781 274° West 377 434 38,000 -60 Level Minneapolis Center
08:22AM 44.7825 -87.1231 274° West 373 429 37,900 -960 Descending Minneapolis Center
08:23AM 44.7900 -87.3011 273° West 379 436 36,100 -960 Descending Minneapolis Center
08:24AM 44.7969 -87.4483 274° West 379 436 36,000 -60 Descending Minneapolis Center
08:25AM 44.8022 -87.5678 274° West 380 437 36,000  Level Minneapolis Center
08:26AM 44.8078 -87.7181 273° West 385 443 36,000  Level Minneapolis Center
08:27AM 44.8153 -87.8992 273° West 387 445 36,000  Level Minneapolis Center
08:28AM 44.8203 -88.0503 273° West 389 448 36,000  Level Minneapolis Center
08:29AM 44.8258 -88.2017 273° West 387 445 36,000  Level Minneapolis Center
08:30AM 44.8319 -88.3564 273° West 391 450 36,000  Level Minneapolis Center
08:31AM 44.8392 -88.5344 273° West 392 451 36,000  Level Minneapolis Center
08:32AM 44.8431 -88.6867 272° West 391 450 36,000  Level Minneapolis Center
08:33AM 44.8483 -88.8386 273° West 389 448 36,000  Level Minneapolis Center
08:34AM 44.8533 -88.9917 273° West 391 450 36,000 -300 Level Minneapolis Center
08:35AM 44.8569 -89.1425 272° West 389 448 35,400 -1,080 Descending Minneapolis Center
08:36AM 44.8606 -89.2953 272° West 389 448 33,900 -1,620 Descending Minneapolis Center
08:37AM 44.8653 -89.4692 272° West 383 441 32,200 -960 Descending Minneapolis Center
08:38AM 44.8689 -89.6239 272° West 393 452 32,000 -120 Descending Minneapolis Center
08:39AM 44.8725 -89.7872 272° West 395 455 32,000  Level Minneapolis Center
08:40AM 44.8756 -89.9444 272° West 399 459 32,000  Level Minneapolis Center
08:41AM 44.8786 -90.1025 272° West 402 463 32,000  Level Minneapolis Center
08:43AM 44.8828 -90.2597 272° West 402 463 32,000  Level Minneapolis Center
08:44AM 44.8844 -90.4186 271° West 404 465 32,000  Level Minneapolis Center
08:45AM 44.8881 -90.6075 272° West 402 463 32,000  Level Minneapolis Center
08:46AM 44.9033 -90.7614 278° West 396 456 32,000  Level Minneapolis Center
08:47AM 44.9194 -90.9358 277° West 394 453 32,000  Level Minneapolis Center
08:48AM 44.9331 -91.0858 277° West 389 448 32,000 -1,020 Level Minneapolis Center
08:49AM 44.9500 -91.2375 279° West 392 451 30,000 -2,100 Descending Minneapolis Center
08:50AM 44.9639 -91.3822 278° West 381 438 27,300 -2,640 Descending Minneapolis Center
08:51AM 44.9811 -91.5517 278° West 369 425 24,100 -2,640 Descending Minneapolis Center
08:52AM 44.9922 -91.6656 278° West 368 423 21,900 -2,880 Descending Minneapolis Center
08:53AM 45.0103 -91.8592 278° West 358 412 18,200 -2,880 Descending Minneapolis Center
08:54AM 45.0208 -91.9664 278° West 348 400 16,000 -2,640 Descending Minneapolis Center
08:55AM 45.0353 -92.1222 278° West 335 386 12,800 -2,400 Descending Minneapolis Center
08:56AM 45.0464 -92.2500 277° West 329 379 11,100 -900 Descending Minneapolis Center
08:57AM 45.0347 -92.3786 263° West 334 384 11,000 -480 Descending Minneapolis Center
08:58AM 45.0011 -92.4900 247° West 307 353 10,200 -1,080 Descending Minneapolis Center
08:59AM 44.9547 -92.5808 234° Southwest 284 327 8,800 -1,560 Descending Minneapolis Center
09:00AM 44.9100 -92.6678 234° Southwest 276 318 7,100 -960 Descending Minneapolis Center
09:01AM 44.8539 -92.7714 233° Southwest 278 320 6,900 -540 Descending Minneapolis Center
09:03AM 44.7967 -92.8336 218° Southwest 263 303 6,000 -900 Descending Minneapolis Center
09:04AM 44.7939 -92.9208 267° West 183 211 5,000 -1,020 Descending Minneapolis Center
09:05AM 44.7917 -92.9886 267° West 176 203 4,000 -1,020 Descending Minneapolis Center